• Join FlightAware (Why Join?)
  • Login
  • US Flag 
11:49AM EDT


 

Airport Tracker/Info


-or-


 

Live Flight TrackerFlight Track Log ✈ SWA2975 ✈ 01-Jul-2013 ✈ KDEN - KSLC

Flight Track Log - Related Links

Times and Time Zones

All times are in EDT time to prevent confusion due to time zone crossing. See the SWA2975 flight status page for this flight to view local times or setup timezone preferences in your user account.

Time Position Orientation Groundspeed Altitude Reporting Facility
EDT Latitude Longitude Course Direction KTS MPH feet Rate Location/Type
04:07PM 39.8400 -104.6420 180° South 188 216 5,400  Level FlightAware
04:07PM 39.8290 -104.6430 184° South 187 215 6,200 3,000 Climbing FlightAware
04:08PM 39.8200 -104.6530 220° Southwest 203 234 6,700 1,800 Climbing FlightAware
04:08PM 39.8160 -104.6730 255° West 229 264 7,100 1,560 Climbing FlightAware
04:08PM 39.8160 -104.6930 270° West 249 287 7,500 1,380 Climbing FlightAware
04:08PM 39.8150 -104.7260 268° West 282 325 7,900 1,860 Climbing FlightAware
04:09PM 39.8150 -104.7670 270° West 301 346 8,900 3,060 Climbing FlightAware
04:10PM 39.8180 -104.8710 272° West 313 360 12,000 3,420 Climbing FlightAware
04:10PM 39.8150 -104.9550 267° West 318 366 14,600 3,000 Climbing FlightAware
04:11PM 39.8130 -105.0430 268° West 335 386 16,500 2,760 Climbing FlightAware
04:12PM 39.8210 -105.1100 279° West 334 384 18,400 3,060 Climbing FlightAware
04:13PM 39.8320 -105.2080 278° West 342 394 20,700 2,640 Climbing FlightAware
04:13PM 39.8390 -105.2870 277° West 353 406 22,200 2,220 Climbing FlightAware
04:14PM 39.8470 -105.3630 278° West 363 418 23,500 2,040 Climbing FlightAware
04:14PM 39.8560 -105.4550 277° West 373 429 24,900 1,920 Climbing FlightAware
04:15PM 39.8640 -105.5450 277° West 385 443 26,200 1,740 Climbing FlightAware
04:16PM 39.8750 -105.6540 278° West 399 459 27,400 1,680 Climbing FlightAware
04:17PM 39.8840 -105.7500 277° West 406 467 28,600 1,680 Climbing FlightAware
04:17PM 39.8940 -105.8650 277° West 414 476 29,900 1,560 Climbing FlightAware
04:18PM 39.9030 -105.9510 278° West 414 476 30,800 1,320 Climbing FlightAware
04:19PM 39.9110 -106.0420 277° West 424 488 31,500 1,140 Climbing FlightAware
04:19PM 39.9220 -106.1610 277° West 437 503 32,400 1,200 Climbing FlightAware
04:20PM 39.9320 -106.2700 277° West 441 507 33,300 1,320 Climbing FlightAware
04:21PM 39.9400 -106.3620 276° West 443 510 34,100 1,380 Climbing FlightAware
04:21PM 39.9500 -106.4770 277° West 444 511 35,100 1,200 Climbing FlightAware
04:22PM 39.9590 -106.5880 276° West 445 512 35,900 1,080 Climbing FlightAware
04:23PM 39.9670 -106.6800 277° West 448 516 36,500 1,080 Climbing FlightAware
04:23PM 39.9740 -106.7630 276° West 448 516 37,100 1,200 Climbing FlightAware
04:24PM 39.9840 -106.8740 277° West 446 513 38,000 1,200 Climbing FlightAware
04:24PM 39.9930 -106.9810 276° West 440 506 38,800 1,200 Climbing FlightAware
04:25PM 40.0010 -107.0870 276° West 435 501 39,600 840 Climbing FlightAware
04:26PM 40.0110 -107.2010 277° West 435 501 40,000 240 Climbing FlightAware
04:27PM 40.0200 -107.3150 276° West 436 502 40,000  Level FlightAware
04:27PM 40.0270 -107.4040 276° West 438 504 40,000  Level FlightAware
04:28PM 40.0350 -107.5080 276° West 441 507 40,000  Level FlightAware
04:29PM 40.0440 -107.6170 276° West 441 507 40,000  Level FlightAware
04:29PM 40.0510 -107.7070 276° West 441 507 40,000  Level FlightAware
04:30PM 40.0600 -107.8240 276° West 438 504 40,000  Level FlightAware
04:31PM 40.0680 -107.9290 276° West 440 506 40,000  Level FlightAware
04:31PM 40.0750 -108.0800 274° West 441 507 40,000  Level FlightAware
04:32PM 40.0790 -108.1830 273° West 442 509 40,000  Level FlightAware
04:33PM 40.0840 -108.3060 273° West 442 509 40,000  Level FlightAware
04:34PM 40.0890 -108.4190 273° West 441 507 40,000  Level FlightAware
04:34PM 40.0940 -108.5240 274° West 441 507 40,000  Level FlightAware
04:35PM 40.0980 -108.6350 273° West 440 506 40,000  Level FlightAware
04:36PM 40.1030 -108.7580 273° West 441 507 40,000  Level FlightAware
04:36PM 40.1070 -108.8580 273° West 440 506 40,000  Level FlightAware
04:37PM 40.1110 -108.9710 273° West 439 505 40,000  Level FlightAware
04:38PM 40.1150 -109.0780 273° West 439 505 40,000  Level FlightAware
04:38PM 40.1190 -109.1720 273° West 439 505 40,000 -180 Level FlightAware
04:39PM 40.1230 -109.2870 273° West 439 505 39,800 -660 Descending FlightAware
04:40PM 40.1270 -109.3980 273° West 439 505 39,100 -1,020 Descending FlightAware
04:40PM 40.1310 -109.5160 273° West 446 513 38,400 -960 Descending FlightAware
04:41PM 40.1340 -109.6180 272° West 452 520 37,800 -1,320 Descending FlightAware
04:42PM 40.1380 -109.7390 273° West 455 524 36,600 -1,800 Descending FlightAware
04:43PM 40.1410 -109.8440 272° West 449 517 35,400 -1,800 Descending FlightAware
04:43PM 40.1440 -109.9430 272° West 454 522 34,300 -1,620 Descending FlightAware
04:44PM 40.1480 -110.0680 272° West 458 527 33,300 -1,200 Descending FlightAware
04:45PM 40.1490 -110.1800 271° West 464 534 32,700 -1,020 Descending FlightAware
04:45PM 40.1480 -110.2940 269° West 462 532 32,000 -960 Descending FlightAware
04:46PM 40.1470 -110.3920 269° West 459 528 31,500 -660 Descending FlightAware
04:47PM 40.1450 -110.5500 269° West 458 527 30,900 -1,860 Descending FlightAware
04:48PM 40.1440 -110.6820 269° West 440 506 28,300 -3,000 Descending FlightAware
04:48PM 40.1440 -110.6820 269° West 431 496 26,900 -1,620 Descending FlightAware
04:49PM 40.1410 -110.9240 269° West 423 487 25,600 -780 Descending FlightAware
04:50PM 40.1400 -111.0040 269° West 423 487 25,600  Level FlightAware
04:51PM 40.1380 -111.1090 269° West 423 487 25,600  Level FlightAware
04:51PM 40.1370 -111.1870 269° West 423 487 25,600  Level FlightAware
04:52PM 40.1360 -111.2680 269° West 423 487 25,600  Level FlightAware
04:53PM 40.1350 -111.3680 269° West 423 487 25,600 -3,840 Level FlightAware
04:55PM 40.1690 -111.6880 278° West 356 410 14,800 -3,780 Descending FlightAware
04:56PM 40.1820 -111.7730 281° West 355 409 14,700 -900 Descending FlightAware
04:56PM 40.1950 -111.8530 282° West 302 348 13,600 -840 Descending FlightAware
04:57PM 40.2340 -111.9590 296° West 263 303 13,200 -780 Descending FlightAware
04:58PM 40.2620 -111.9350 33° Northeast 256 295 12,500 -1,560 Descending FlightAware
04:58PM 40.3070 -111.9240 11° North 248 285 11,800 -1,200 Descending FlightAware
04:59PM 40.3580 -111.9300 355° North 246 283 10,900 -1,080 Descending FlightAware
05:00PM 40.4040 -111.9330 357° North 232 267 10,300 -600 Descending FlightAware
05:00PM 40.4490 -111.9370 356° North 244 281 10,100 -540 Descending FlightAware
05:01PM 40.4930 -111.9400 357° North 243 280 9,600 -1,020 Descending FlightAware
05:01PM 40.5100 -111.9420 355° North 245 282 9,200 -1,620 Descending FlightAware
05:02PM 40.5360 -111.9450 355° North 244 281 8,600 -1,500 Descending FlightAware
05:02PM 40.5780 -111.9500 355° North 229 264 7,700 -1,500 Descending FlightAware
05:03PM 40.5980 -111.9530 354° North 222 255 7,200 -1,200 Descending FlightAware
05:03PM 40.6250 -111.9560 355° North 207 238 6,800 -1,020 Descending FlightAware
05:04PM 40.6510 -111.9590 355° North 196 226 6,300 -960 Descending FlightAware
05:04PM 40.6750 -111.9620 355° North 184 212 5,900 -900 Descending FlightAware
05:04PM 40.6920 -111.9640 355° North 179 206 5,600 -1,020 Descending FlightAware
05:05PM 40.7160 -111.9660 356° North 170 196 5,100 -840 Descending FlightAware
05:05PM 40.7360 -111.9690 354° North 155 178 4,800 -780 Descending FlightAware
05:06PM 40.7560 -111.9710 356° North 155 178 4,400 -540 Descending FlightAware
05:06PM 40.7850 -111.9750 354° North 155 178 4,200 -300 Descending FlightAware
05:14PM 40.7833 -111.9667 North  Level FlightAware Approximate
05:15PM 40.7884 -111.9778 North  Level Estimated
05:16PM 40.7884 -111.9778 North  Level Estimated
05:17PM 40.7884 -111.9778 North  Level Estimated
05:18PM 40.7884 -111.9778 North  Level Estimated
05:19PM 40.7884 -111.9778 North  Level Estimated